Main page
METAR-TAF:

METAR-TAF

Airports :

Norwich Airport

Norwich, England

latitude: 52-38N, longitude: 001-18E, elevation: 14 m

Current weather observation

The report was made 36 minutes ago, at 05:20 UTC
Wind 3 kt from variable directions
Temperature 14°C
Humidity 82%
Pressure 1023 hPa
Visibility 10 km or more
no clouds below 1500 m and no cumulonimbus

METAR: EGSH 150520Z VRB03KT CAVOK 14/11 Q1023 NOSIG

Time: 06:56 (05:56 UTC)

Forecast

The report was made 59 minutes ago, at 04:57 UTC
Forecast valid from 15 at 06 UTC to 15 at 15 UTC
Wind 5 kt from the North
Visibility 10 km or more
Broken clouds at a height of 3500 ft
Becoming
from 15 at 12 UTC to 15 at 15 UTC
Wind 10 kt from the East

TAF: EGSH 150457Z 1506/1515 36005KT 9999 BKN035 BECMG 1512/1515 09010KT

Weather observations and forecasts of more than 4000 airports (METAR and TAF reports).

The available stations are represented by yellow and red dots on the map.

Hover mouse over dot to see the name of the station.

Then click to see weather observations and forecasts.

To change the map : click on the green buttons with a black cross to zoom in, on the green button with a dash to zoom out, or on the green arrows for adjacent maps.


METAR-TAF: